sensor_id;sensor_type;location;lat;lon;timestamp;P1;durP1;ratioP1;P2;durP2;ratioP2
47812;SDS011;34221;45.296;9.516;2023-09-08T00:00:05;13.68;;;9.25;;
47812;SDS011;34221;45.296;9.516;2023-09-08T00:00:21;12.50;;;8.90;;
47812;SDS011;34221;45.296;9.516;2023-09-08T00:00:36;12.55;;;9.57;;
47812;SDS011;34221;45.296;9.516;2023-09-08T00:00:51;12.18;;;9.75;;
47812;SDS011;34221;45.296;9.516;2023-09-08T00:01:05;11.18;;;8.90;;
47812;SDS011;34221;45.296;9.516;2023-09-08T00:01:20;10.93;;;8.73;;
47812;SDS011;34221;45.296;9.516;2023-09-08T00:01:41;11.63;;;9.20;;
47812;SDS011;34221;45.296;9.516;2023-09-08T00:01:56;13.55;;;8.93;;
47812;SDS011;34221;45.296;9.516;2023-09-08T00:02:11;18.00;;;9.23;;
47812;SDS011;34221;45.296;9.516;2023-09-08T00:02:26;16.02;;;9.18;;
47812;SDS011;34221;45.296;9.516;2023-09-08T00:02:42;11.85;;;9.50;;
47812;SDS011;34221;45.296;9.516;2023-09-08T00:02:57;10.95;;;9.35;;
47812;SDS011;34221;45.296;9.516;2023-09-08T00:03:12;10.63;;;8.95;;
47812;SDS011;34221;45.296;9.516;2023-09-08T00:03:27;11.77;;;9.07;;
47812;SDS011;34221;45.296;9.516;2023-09-08T00:03:42;12.18;;;9.45;;
47812;SDS011;34221;45.296;9.516;2023-09-08T00:03:57;13.02;;;9.65;;
47812;SDS011;34221;45.296;9.516;2023-09-08T00:04:12;13.73;;;9.85;;
47812;SDS011;34221;45.296;9.516;2023-09-08T00:04:28;14.20;;;9.82;;
47812;SDS011;34221;45.296;9.516;2023-09-08T00:04:43;13.40;;;9.57;;
47812;SDS011;34221;45.296;9.516;2023-09-08T00:04:58;11.68;;;9.05;;
47812;SDS011;34221;45.296;9.516;2023-09-08T00:05:13;11.77;;;8.73;;
47812;SDS011;34221;45.296;9.516;2023-09-08T00:05:28;12.38;;;9.20;;
47812;SDS011;34221;45.296;9.516;2023-09-08T00:05:43;13.63;;;9.65;;
47812;SDS011;34221;45.296;9.516;2023-09-08T00:05:58;14.80;;;9.50;;
47812;SDS011;34221;45.296;9.516;2023-09-08T00:06:13;12.38;;;8.88;;
47812;SDS011;34221;45.296;9.516;2023-09-08T00:06:28;12.80;;;9.23;;
47812;SDS011;34221;45.296;9.516;2023-09-08T00:06:43;13.85;;;9.98;;
47812;SDS011;34221;45.296;9.516;2023-09-08T00:06:58;11.75;;;9.52;;
47812;SDS011;34221;45.296;9.516;2023-09-08T00:07:13;11.40;;;9.40;;
47812;SDS011;34221;45.296;9.516;2023-09-08T00:07:28;11.43;;;8.95;;
47812;SDS011;34221;45.296;9.516;2023-09-08T00:07:43;10.30;;;8.25;;
47812;SDS011;34221;45.296;9.516;2023-09-08T00:07:58;10.73;;;8.87;;
47812;SDS011;34221;45.296;9.516;2023-09-08T00:08:13;12.27;;;9.70;;
47812;SDS011;34221;45.296;9.516;2023-09-08T00:08:28;11.48;;;9.38;;
47812;SDS011;34221;45.296;9.516;2023-09-08T00:08:42;10.82;;;9.07;;
47812;SDS011;34221;45.296;9.516;2023-09-08T00:08:57;11.00;;;9.10;;
47812;SDS011;34221;45.296;9.516;2023-09-08T00:09:12;13.52;;;9.82;;
47812;SDS011;34221;45.296;9.516;2023-09-08T00:09:28;13.90;;;9.88;;
47812;SDS011;34221;45.296;9.516;2023-09-08T00:09:42;11.35;;;9.25;;
47812;SDS011;34221;45.296;9.516;2023-09-08T00:09:58;11.75;;;9.40;;
47812;SDS011;34221;45.296;9.516;2023-09-08T00:10:13;12.20;;;9.32;;
47812;SDS011;34221;45.296;9.516;2023-09-08T00:10:28;12.23;;;9.18;;
47812;SDS011;34221;45.296;9.516;2023-09-08T00:10:43;12.45;;;9.38;;
47812;SDS011;34221;45.296;9.516;2023-09-08T00:10:57;13.23;;;10.10;;
47812;SDS011;34221;45.296;9.516;2023-09-08T00:11:12;14.43;;;10.75;;
47812;SDS011;34221;45.296;9.516;2023-09-08T00:11:31;13.93;;;10.13;;
47812;SDS011;34221;45.296;9.516;2023-09-08T00:11:45;11.68;;;9.00;;
47812;SDS011;34221;45.296;9.516;2023-09-08T00:12:00;12.32;;;9.77;;
47812;SDS011;34221;45.296;9.516;2023-09-08T00:12:16;12.63;;;10.05;;
47812;SDS011;34221;45.296;9.516;2023-09-08T00:12:31;14.00;;;9.87;;
47812;SDS011;34221;45.296;9.516;2023-09-08T00:12:45;13.83;;;9.47;;
47812;SDS011;34221;45.296;9.516;2023-09-08T00:13:00;11.82;;;9.00;;
47812;SDS011;34221;45.296;9.516;2023-09-08T00:13:15;11.90;;;9.18;;
47812;SDS011;34221;45.296;9.516;2023-09-08T00:13:30;13.07;;;9.60;;
47812;SDS011;34221;45.296;9.516;2023-09-08T00:13:45;14.10;;;9.77;;
47812;SDS011;34221;45.296;9.516;2023-09-08T00:14:00;15.50;;;10.20;;
47812;SDS011;34221;45.296;9.516;2023-09-08T00:14:15;14.35;;;10.18;;
47812;SDS011;34221;45.296;9.516;2023-09-08T00:14:30;12.25;;;9.52;;
47812;SDS011;34221;45.296;9.516;2023-09-08T00:14:45;11.85;;;8.95;;
47812;SDS011;34221;45.296;9.516;2023-09-08T00:15:00;11.23;;;8.35;;
47812;SDS011;34221;45.296;9.516;2023-09-08T00:15:15;12.43;;;8.77;;
47812;SDS011;34221;45.296;9.516;2023-09-08T00:15:30;13.98;;;9.60;;
47812;SDS011;34221;45.296;9.516;2023-09-08T00:15:49;13.48;;;9.65;;
47812;SDS011;34221;45.296;9.516;2023-09-08T00:16:04;14.95;;;9.52;;
47812;SDS011;34221;45.296;9.516;2023-09-08T00:16:19;16.65;;;9.70;;
47812;SDS011;34221;45.296;9.516;2023-09-08T00:16:33;15.60;;;10.10;;
47812;SDS011;34221;45.296;9.516;2023-09-08T00:16:48;13.95;;;10.25;;
47812;SDS011;34221;45.296;9.516;2023-09-08T00:17:05;13.50;;;10.02;;
47812;SDS011;34221;45.296;9.516;2023-09-08T00:17:20;13.10;;;10.07;;
47812;SDS011;34221;45.296;9.516;2023-09-08T00:17:34;12.83;;;10.17;;
47812;SDS011;34221;45.296;9.516;2023-09-08T00:17:50;12.25;;;9.77;;
47812;SDS011;34221;45.296;9.516;2023-09-08T00:18:05;11.85;;;9.38;;
47812;SDS011;34221;45.296;9.516;2023-09-08T00:18:20;11.10;;;9.23;;
47812;SDS011;34221;45.296;9.516;2023-09-08T00:18:35;11.40;;;9.80;;
47812;SDS011;34221;45.296;9.516;2023-09-08T00:18:50;12.33;;;10.03;;
47812;SDS011;34221;45.296;9.516;2023-09-08T00:19:05;11.65;;;9.13;;
47812;SDS011;34221;45.296;9.516;2023-09-08T00:19:20;12.10;;;9.13;;
47812;SDS011;34221;45.296;9.516;2023-09-08T00:19:37;11.98;;;9.43;;
47812;SDS011;34221;45.296;9.516;2023-09-08T00:19:52;11.23;;;8.95;;
47812;SDS011;34221;45.296;9.516;2023-09-08T00:20:07;11.20;;;8.93;;
47812;SDS011;34221;45.296;9.516;2023-09-08T00:20:23;11.68;;;9.25;;
47812;SDS011;34221;45.296;9.516;2023-09-08T00:20:38;12.80;;;9.57;;
47812;SDS011;34221;45.296;9.516;2023-09-08T00:20:53;13.02;;;10.00;;
47812;SDS011;34221;45.296;9.516;2023-09-08T00:21:07;11.98;;;9.68;;
47812;SDS011;34221;45.296;9.516;2023-09-08T00:21:22;12.10;;;9.35;;
47812;SDS011;34221;45.296;9.516;2023-09-08T00:21:38;11.57;;;9.05;;
47812;SDS011;34221;45.296;9.516;2023-09-08T00:21:53;11.35;;;8.77;;
47812;SDS011;34221;45.296;9.516;2023-09-08T00:22:08;12.40;;;9.13;;
47812;SDS011;34221;45.296;9.516;2023-09-08T00:22:23;12.02;;;9.38;;
47812;SDS011;34221;45.296;9.516;2023-09-08T00:22:38;12.73;;;9.35;;
47812;SDS011;34221;45.296;9.516;2023-09-08T00:22:53;14.13;;;9.82;;
47812;SDS011;34221;45.296;9.516;2023-09-08T00:23:08;14.05;;;9.82;;
47812;SDS011;34221;45.296;9.516;2023-09-08T00:23:23;13.80;;;9.27;;
47812;SDS011;34221;45.296;9.516;2023-09-08T00:23:38;13.45;;;9.38;;
47812;SDS011;34221;45.296;9.516;2023-09-08T00:23:53;14.32;;;9.98;;
47812;SDS011;34221;45.296;9.516;2023-09-08T00:24:08;14.32;;;10.43;;
47812;SDS011;34221;45.296;9.516;2023-09-08T00:24:23;12.20;;;9.98;;
47812;SDS011;34221;45.296;9.516;2023-09-08T00:24:38;10.73;;;9.10;;
47812;SDS011;34221;45.296;9.516;2023-09-08T00:24:53;12.07;;;9.48;;
47812;SDS011;34221;45.296;9.516;2023-09-08T00:25:09;15.45;;;10.68;;
47812;SDS011;34221;45.296;9.516;2023-09-08T00:25:24;14.57;;;10.38;;
47812;SDS011;34221;45.296;9.516;2023-09-08T00:25:39;12.25;;;9.52;;
47812;SDS011;34221;45.296;9.516;2023-09-08T00:25:54;11.82;;;9.30;;
47812;SDS011;34221;45.296;9.516;2023-09-08T00:26:09;11.88;;;9.52;;
47812;SDS011;34221;45.296;9.516;2023-09-08T00:26:25;11.73;;;9.52;;
47812;SDS011;34221;45.296;9.516;2023-09-08T00:26:40;11.10;;;9.20;;
47812;SDS011;34221;45.296;9.516;2023-09-08T00:26:54;11.48;;;9.13;;
47812;SDS011;34221;45.296;9.516;2023-09-08T00:27:09;11.88;;;9.15;;
47812;SDS011;34221;45.296;9.516;2023-09-08T00:27:24;11.55;;;9.38;;
47812;SDS011;34221;45.296;9.516;2023-09-08T00:27:40;13.38;;;9.80;;
47812;SDS011;34221;45.296;9.516;2023-09-08T00:27:54;14.95;;;10.35;;
47812;SDS011;34221;45.296;9.516;2023-09-08T00:28:09;14.05;;;10.05;;
47812;SDS011;34221;45.296;9.516;2023-09-08T00:29:00;14.70;;;10.40;;
47812;SDS011;34221;45.296;9.516;2023-09-08T00:29:14;14.25;;;10.98;;
47812;SDS011;34221;45.296;9.516;2023-09-08T00:29:29;13.43;;;10.48;;
47812;SDS011;34221;45.296;9.516;2023-09-08T00:29:45;13.68;;;10.20;;
47812;SDS011;34221;45.296;9.516;2023-09-08T00:30:00;14.45;;;10.68;;
47812;SDS011;34221;45.296;9.516;2023-09-08T00:30:16;13.35;;;10.10;;
47812;SDS011;34221;45.296;9.516;2023-09-08T00:30:31;12.70;;;9.88;;
47812;SDS011;34221;45.296;9.516;2023-09-08T00:30:46;13.53;;;10.17;;
47812;SDS011;34221;45.296;9.516;2023-09-08T00:31:01;14.47;;;10.57;;
47812;SDS011;34221;45.296;9.516;2023-09-08T00:31:35;15.73;;;9.55;;
47812;SDS011;34221;45.296;9.516;2023-09-08T00:31:50;12.15;;;9.50;;
47812;SDS011;34221;45.296;9.516;2023-09-08T00:32:05;12.05;;;9.55;;
47812;SDS011;34221;45.296;9.516;2023-09-08T00:32:20;11.32;;;9.15;;
47812;SDS011;34221;45.296;9.516;2023-09-08T00:32:35;13.25;;;9.30;;
47812;SDS011;34221;45.296;9.516;2023-09-08T00:32:50;14.35;;;10.05;;
47812;SDS011;34221;45.296;9.516;2023-09-08T00:33:05;13.32;;;9.95;;
47812;SDS011;34221;45.296;9.516;2023-09-08T00:33:23;12.68;;;9.10;;
47812;SDS011;34221;45.296;9.516;2023-09-08T00:33:38;14.02;;;9.15;;
47812;SDS011;34221;45.296;9.516;2023-09-08T00:33:53;14.05;;;9.30;;
47812;SDS011;34221;45.296;9.516;2023-09-08T00:34:08;12.68;;;9.23;;
47812;SDS011;34221;45.296;9.516;2023-09-08T00:34:23;12.65;;;9.25;;
47812;SDS011;34221;45.296;9.516;2023-09-08T00:34:40;12.50;;;9.65;;
47812;SDS011;34221;45.296;9.516;2023-09-08T00:34:55;11.02;;;9.52;;
47812;SDS011;34221;45.296;9.516;2023-09-08T00:35:11;10.65;;;9.30;;
47812;SDS011;34221;45.296;9.516;2023-09-08T00:35:27;12.77;;;9.82;;
47812;SDS011;34221;45.296;9.516;2023-09-08T00:35:48;12.63;;;10.10;;
47812;SDS011;34221;45.296;9.516;2023-09-08T00:36:04;12.05;;;9.48;;
47812;SDS011;34221;45.296;9.516;2023-09-08T00:36:19;12.93;;;9.70;;
47812;SDS011;34221;45.296;9.516;2023-09-08T00:36:34;13.43;;;9.57;;
47812;SDS011;34221;45.296;9.516;2023-09-08T00:36:48;12.77;;;9.60;;
47812;SDS011;34221;45.296;9.516;2023-09-08T00:37:03;12.75;;;10.05;;
47812;SDS011;34221;45.296;9.516;2023-09-08T00:37:21;14.60;;;10.35;;
47812;SDS011;34221;45.296;9.516;2023-09-08T00:37:36;15.90;;;10.60;;
47812;SDS011;34221;45.296;9.516;2023-09-08T00:37:51;15.77;;;10.18;;
47812;SDS011;34221;45.296;9.516;2023-09-08T00:38:06;14.98;;;10.00;;
47812;SDS011;34221;45.296;9.516;2023-09-08T00:38:21;13.90;;;10.32;;
47812;SDS011;34221;45.296;9.516;2023-09-08T00:38:36;13.55;;;10.77;;
47812;SDS011;34221;45.296;9.516;2023-09-08T00:38:51;12.18;;;10.02;;
47812;SDS011;34221;45.296;9.516;2023-09-08T00:39:05;11.75;;;9.65;;
47812;SDS011;34221;45.296;9.516;2023-09-08T00:39:20;13.57;;;10.10;;
47812;SDS011;34221;45.296;9.516;2023-09-08T00:39:35;13.57;;;10.07;;
47812;SDS011;34221;45.296;9.516;2023-09-08T00:39:52;13.20;;;10.00;;
47812;SDS011;34221;45.296;9.516;2023-09-08T00:40:07;12.73;;;9.95;;
47812;SDS011;34221;45.296;9.516;2023-09-08T00:40:26;12.98;;;10.07;;
47812;SDS011;34221;45.296;9.516;2023-09-08T00:40:42;14.10;;;10.25;;
47812;SDS011;34221;45.296;9.516;2023-09-08T00:40:57;13.32;;;9.65;;
47812;SDS011;34221;45.296;9.516;2023-09-08T00:41:13;11.57;;;9.07;;
47812;SDS011;34221;45.296;9.516;2023-09-08T00:41:28;11.55;;;9.40;;
47812;SDS011;34221;45.296;9.516;2023-09-08T00:41:43;11.88;;;9.45;;
47812;SDS011;34221;45.296;9.516;2023-09-08T00:41:58;11.07;;;9.40;;
47812;SDS011;34221;45.296;9.516;2023-09-08T00:42:13;11.57;;;9.63;;
47812;SDS011;34221;45.296;9.516;2023-09-08T00:42:28;12.13;;;9.52;;
47812;SDS011;34221;45.296;9.516;2023-09-08T00:42:43;12.38;;;9.57;;
47812;SDS011;34221;45.296;9.516;2023-09-08T00:42:58;12.90;;;10.13;;
47812;SDS011;34221;45.296;9.516;2023-09-08T00:43:13;13.68;;;10.30;;
47812;SDS011;34221;45.296;9.516;2023-09-08T00:43:28;14.65;;;10.57;;
47812;SDS011;34221;45.296;9.516;2023-09-08T00:43:43;14.00;;;10.32;;
47812;SDS011;34221;45.296;9.516;2023-09-08T00:43:58;13.90;;;9.80;;
47812;SDS011;34221;45.296;9.516;2023-09-08T00:44:13;14.10;;;10.07;;
47812;SDS011;34221;45.296;9.516;2023-09-08T00:44:28;13.63;;;10.27;;
47812;SDS011;34221;45.296;9.516;2023-09-08T00:44:43;13.88;;;10.52;;
47812;SDS011;34221;45.296;9.516;2023-09-08T00:44:58;13.80;;;10.25;;
47812;SDS011;34221;45.296;9.516;2023-09-08T00:45:13;13.70;;;10.15;;
47812;SDS011;34221;45.296;9.516;2023-09-08T00:45:28;14.07;;;10.13;;
47812;SDS011;34221;45.296;9.516;2023-09-08T00:45:44;14.13;;;9.70;;
47812;SDS011;34221;45.296;9.516;2023-09-08T00:46:00;12.52;;;9.05;;
47812;SDS011;34221;45.296;9.516;2023-09-08T00:46:17;12.45;;;9.10;;
47812;SDS011;34221;45.296;9.516;2023-09-08T00:46:32;12.40;;;9.68;;
47812;SDS011;34221;45.296;9.516;2023-09-08T00:46:47;12.25;;;9.32;;
47812;SDS011;34221;45.296;9.516;2023-09-08T00:47:02;12.27;;;8.90;;
47812;SDS011;34221;45.296;9.516;2023-09-08T00:47:17;12.38;;;9.40;;
47812;SDS011;34221;45.296;9.516;2023-09-08T00:47:33;11.70;;;9.70;;
47812;SDS011;34221;45.296;9.516;2023-09-08T00:47:49;12.00;;;9.13;;
47812;SDS011;34221;45.296;9.516;2023-09-08T00:48:04;13.95;;;9.60;;
47812;SDS011;34221;45.296;9.516;2023-09-08T00:48:19;13.20;;;9.77;;
47812;SDS011;34221;45.296;9.516;2023-09-08T00:48:36;12.43;;;9.43;;
47812;SDS011;34221;45.296;9.516;2023-09-08T00:48:52;12.55;;;9.60;;
47812;SDS011;34221;45.296;9.516;2023-09-08T00:49:08;14.25;;;9.68;;
47812;SDS011;34221;45.296;9.516;2023-09-08T00:49:23;15.73;;;10.40;;
47812;SDS011;34221;45.296;9.516;2023-09-08T00:49:38;13.55;;;10.32;;
47812;SDS011;34221;45.296;9.516;2023-09-08T00:49:53;13.30;;;9.82;;
47812;SDS011;34221;45.296;9.516;2023-09-08T00:50:08;12.70;;;9.40;;
47812;SDS011;34221;45.296;9.516;2023-09-08T00:50:23;11.95;;;9.10;;
47812;SDS011;34221;45.296;9.516;2023-09-08T00:50:38;13.35;;;9.90;;
47812;SDS011;34221;45.296;9.516;2023-09-08T00:50:53;12.38;;;9.90;;
47812;SDS011;34221;45.296;9.516;2023-09-08T00:51:09;12.45;;;9.48;;
47812;SDS011;34221;45.296;9.516;2023-09-08T00:51:24;14.20;;;9.93;;
47812;SDS011;34221;45.296;9.516;2023-09-08T00:51:40;13.52;;;10.13;;
47812;SDS011;34221;45.296;9.516;2023-09-08T00:51:55;14.38;;;10.32;;
47812;SDS011;34221;45.296;9.516;2023-09-08T00:52:10;13.70;;;10.05;;
47812;SDS011;34221;45.296;9.516;2023-09-08T00:52:26;13.07;;;10.30;;
47812;SDS011;34221;45.296;9.516;2023-09-08T00:52:45;14.25;;;10.45;;
47812;SDS011;34221;45.296;9.516;2023-09-08T00:53:03;12.20;;;9.85;;
47812;SDS011;34221;45.296;9.516;2023-09-08T00:53:20;11.43;;;9.55;;
47812;SDS011;34221;45.296;9.516;2023-09-08T00:53:36;12.40;;;10.02;;
47812;SDS011;34221;45.296;9.516;2023-09-08T00:53:51;12.25;;;9.70;;
47812;SDS011;34221;45.296;9.516;2023-09-08T00:54:06;11.65;;;9.20;;
47812;SDS011;34221;45.296;9.516;2023-09-08T00:54:22;13.55;;;9.38;;
47812;SDS011;34221;45.296;9.516;2023-09-08T00:54:37;14.02;;;9.73;;
47812;SDS011;34221;45.296;9.516;2023-09-08T00:54:52;12.40;;;9.68;;
47812;SDS011;34221;45.296;9.516;2023-09-08T00:55:07;13.00;;;9.63;;
47812;SDS011;34221;45.296;9.516;2023-09-08T00:55:23;12.40;;;9.82;;
47812;SDS011;34221;45.296;9.516;2023-09-08T00:55:37;12.57;;;9.93;;
47812;SDS011;34221;45.296;9.516;2023-09-08T00:55:53;13.40;;;9.77;;
47812;SDS011;34221;45.296;9.516;2023-09-08T00:56:09;15.68;;;10.52;;
47812;SDS011;34221;45.296;9.516;2023-09-08T00:56:25;13.85;;;10.13;;
47812;SDS011;34221;45.296;9.516;2023-09-08T00:56:40;11.98;;;9.38;;
47812;SDS011;34221;45.296;9.516;2023-09-08T00:56:55;13.65;;;9.70;;
47812;SDS011;34221;45.296;9.516;2023-09-08T00:57:13;12.77;;;9.50;;
47812;SDS011;34221;45.296;9.516;2023-09-08T00:57:28;12.98;;;9.57;;
47812;SDS011;34221;45.296;9.516;2023-09-08T00:57:43;13.63;;;10.13;;
47812;SDS011;34221;45.296;9.516;2023-09-08T00:57:59;12.52;;;9.73;;
47812;SDS011;34221;45.296;9.516;2023-09-08T00:58:15;12.13;;;9.68;;
47812;SDS011;34221;45.296;9.516;2023-09-08T00:58:30;12.02;;;10.00;;
47812;SDS011;34221;45.296;9.516;2023-09-08T00:58:45;12.70;;;9.95;;
47812;SDS011;34221;45.296;9.516;2023-09-08T00:59:00;13.50;;;9.88;;
47812;SDS011;34221;45.296;9.516;2023-09-08T00:59:16;13.00;;;10.05;;
47812;SDS011;34221;45.296;9.516;2023-09-08T00:59:32;11.60;;;9.52;;
47812;SDS011;34221;45.296;9.516;2023-09-08T00:59:48;11.60;;;9.43;;
47812;SDS011;34221;45.296;9.516;2023-09-08T01:00:03;14.75;;;10.73;;
47812;SDS011;34221;45.296;9.516;2023-09-08T01:00:20;14.98;;;10.43;;
47812;SDS011;34221;45.296;9.516;2023-09-08T01:00:35;12.85;;;9.48;;
47812;SDS011;34221;45.296;9.516;2023-09-08T01:00:50;11.75;;;9.30;;
47812;SDS011;34221;45.296;9.516;2023-09-08T01:01:05;11.40;;;9.18;;
47812;SDS011;34221;45.296;9.516;2023-09-08T01:01:20;12.50;;;9.88;;
47812;SDS011;34221;45.296;9.516;2023-09-08T01:01:35;12.52;;;10.25;;
47812;SDS011;34221;45.296;9.516;2023-09-08T01:01:50;15.33;;;10.43;;
47812;SDS011;34221;45.296;9.516;2023-09-08T01:02:06;15.82;;;10.50;;
47812;SDS011;34221;45.296;9.516;2023-09-08T01:02:21;12.75;;;10.27;;
47812;SDS011;34221;45.296;9.516;2023-09-08T01:02:36;12.38;;;10.00;;
47812;SDS011;34221;45.296;9.516;2023-09-08T01:02:52;12.02;;;9.63;;
47812;SDS011;34221;45.296;9.516;2023-09-08T01:03:07;12.95;;;9.82;;
47812;SDS011;34221;45.296;9.516;2023-09-08T01:03:22;13.63;;;9.85;;
47812;SDS011;34221;45.296;9.516;2023-09-08T01:03:40;14.35;;;10.15;;
47812;SDS011;34221;45.296;9.516;2023-09-08T01:03:55;13.40;;;10.25;;
47812;SDS011;34221;45.296;9.516;2023-09-08T01:04:10;13.68;;;10.52;;
47812;SDS011;34221;45.296;9.516;2023-09-08T01:04:25;18.25;;;10.98;;
47812;SDS011;34221;45.296;9.516;2023-09-08T01:04:40;17.60;;;10.40;;
47812;SDS011;34221;45.296;9.516;2023-09-08T01:04:56;14.18;;;9.95;;
47812;SDS011;34221;45.296;9.516;2023-09-08T01:05:13;13.38;;;10.38;;
47812;SDS011;34221;45.296;9.516;2023-09-08T01:05:28;13.27;;;10.25;;
47812;SDS011;34221;45.296;9.516;2023-09-08T01:05:44;15.10;;;11.00;;
47812;SDS011;34221;45.296;9.516;2023-09-08T01:06:01;14.45;;;10.95;;
47812;SDS011;34221;45.296;9.516;2023-09-08T01:06:16;14.25;;;10.35;;
47812;SDS011;34221;45.296;9.516;2023-09-08T01:06:32;15.80;;;10.70;;
47812;SDS011;34221;45.296;9.516;2023-09-08T01:06:47;14.05;;;10.38;;
47812;SDS011;34221;45.296;9.516;2023-09-08T01:07:03;12.63;;;9.88;;
47812;SDS011;34221;45.296;9.516;2023-09-08T01:07:18;13.13;;;10.35;;
47812;SDS011;34221;45.296;9.516;2023-09-08T01:07:34;13.15;;;11.05;;
47812;SDS011;34221;45.296;9.516;2023-09-08T01:07:50;13.98;;;10.82;;
47812;SDS011;34221;45.296;9.516;2023-09-08T01:08:07;14.63;;;10.80;;
47812;SDS011;34221;45.296;9.516;2023-09-08T01:08:22;14.68;;;11.32;;
47812;SDS011;34221;45.296;9.516;2023-09-08T01:08:38;16.70;;;11.85;;
47812;SDS011;34221;45.296;9.516;2023-09-08T01:08:53;16.85;;;11.50;;
47812;SDS011;34221;45.296;9.516;2023-09-08T01:09:09;16.02;;;11.15;;
47812;SDS011;34221;45.296;9.516;2023-09-08T01:09:25;15.73;;;11.35;;
47812;SDS011;34221;45.296;9.516;2023-09-08T01:09:40;14.38;;;11.48;;
47812;SDS011;34221;45.296;9.516;2023-09-08T01:09:56;14.10;;;11.60;;
47812;SDS011;34221;45.296;9.516;2023-09-08T01:10:11;13.63;;;11.10;;
47812;SDS011;34221;45.296;9.516;2023-09-08T01:10:27;13.27;;;10.68;;
47812;SDS011;34221;45.296;9.516;2023-09-08T01:10:43;14.55;;;10.95;;
47812;SDS011;34221;45.296;9.516;2023-09-08T01:10:59;15.68;;;10.73;;
47812;SDS011;34221;45.296;9.516;2023-09-08T01:11:14;13.77;;;10.45;;
47812;SDS011;34221;45.296;9.516;2023-09-08T01:11:30;13.82;;;10.63;;
47812;SDS011;34221;45.296;9.516;2023-09-08T01:11:45;16.45;;;10.68;;
47812;SDS011;34221;45.296;9.516;2023-09-08T01:12:04;14.55;;;10.95;;
47812;SDS011;34221;45.296;9.516;2023-09-08T01:12:21;12.80;;;10.13;;
47812;SDS011;34221;45.296;9.516;2023-09-08T01:12:36;13.75;;;10.68;;
47812;SDS011;34221;45.296;9.516;2023-09-08T01:12:51;15.77;;;11.50;;
47812;SDS011;34221;45.296;9.516;2023-09-08T01:13:06;15.20;;;11.25;;
47812;SDS011;34221;45.296;9.516;2023-09-08T01:13:22;14.30;;;10.95;;
47812;SDS011;34221;45.296;9.516;2023-09-08T01:13:37;12.95;;;10.18;;
47812;SDS011;34221;45.296;9.516;2023-09-08T01:13:52;11.73;;;9.85;;
47812;SDS011;34221;45.296;9.516;2023-09-08T01:14:07;12.45;;;10.18;;
47812;SDS011;34221;45.296;9.516;2023-09-08T01:14:23;13.32;;;10.50;;
47812;SDS011;34221;45.296;9.516;2023-09-08T01:14:41;14.25;;;11.02;;
47812;SDS011;34221;45.296;9.516;2023-09-08T01:14:56;14.05;;;11.05;;
47812;SDS011;34221;45.296;9.516;2023-09-08T01:15:11;14.48;;;10.95;;
47812;SDS011;34221;45.296;9.516;2023-09-08T01:15:27;14.82;;;11.02;;
47812;SDS011;34221;45.296;9.516;2023-09-08T01:15:41;14.30;;;10.98;;
47812;SDS011;34221;45.296;9.516;2023-09-08T01:15:56;14.68;;;10.65;;
47812;SDS011;34221;45.296;9.516;2023-09-08T01:16:11;13.68;;;10.30;;
47812;SDS011;34221;45.296;9.516;2023-09-08T01:16:26;14.02;;;10.90;;
47812;SDS011;34221;45.296;9.516;2023-09-08T01:16:41;15.15;;;10.95;;
47812;SDS011;34221;45.296;9.516;2023-09-08T01:16:56;13.43;;;10.20;;
47812;SDS011;34221;45.296;9.516;2023-09-08T01:17:11;13.10;;;10.52;;
47812;SDS011;34221;45.296;9.516;2023-09-08T01:17:26;13.57;;;10.40;;
47812;SDS011;34221;45.296;9.516;2023-09-08T01:17:41;13.93;;;10.48;;
47812;SDS011;34221;45.296;9.516;2023-09-08T01:17:56;13.80;;;11.05;;
47812;SDS011;34221;45.296;9.516;2023-09-08T01:18:13;13.23;;;11.25;;
47812;SDS011;34221;45.296;9.516;2023-09-08T01:18:28;13.23;;;10.85;;
47812;SDS011;34221;45.296;9.516;2023-09-08T01:18:43;13.95;;;10.50;;
47812;SDS011;34221;45.296;9.516;2023-09-08T01:19:03;14.48;;;10.65;;
47812;SDS011;34221;45.296;9.516;2023-09-08T01:19:19;13.30;;;10.85;;
47812;SDS011;34221;45.296;9.516;2023-09-08T01:19:35;13.45;;;11.07;;
47812;SDS011;34221;45.296;9.516;2023-09-08T01:19:52;15.27;;;11.88;;
47812;SDS011;34221;45.296;9.516;2023-09-08T01:20:15;13.95;;;10.82;;
47812;SDS011;34221;45.296;9.516;2023-09-08T01:22:30;13.65;;;10.13;;
47812;SDS011;34221;45.296;9.516;2023-09-08T01:24:11;13.48;;;11.43;;
47812;SDS011;34221;45.296;9.516;2023-09-08T01:25:27;15.15;;;11.00;;
47812;SDS011;34221;45.296;9.516;2023-09-08T01:26:17;13.32;;;10.40;;
47812;SDS011;34221;45.296;9.516;2023-09-08T01:26:36;14.43;;;11.13;;
47812;SDS011;34221;45.296;9.516;2023-09-08T01:26:56;13.30;;;10.65;;
47812;SDS011;34221;45.296;9.516;2023-09-08T01:27:12;14.27;;;11.20;;
47812;SDS011;34221;45.296;9.516;2023-09-08T01:27:28;18.38;;;12.20;;
47812;SDS011;34221;45.296;9.516;2023-09-08T01:27:48;17.23;;;11.43;;
47812;SDS011;34221;45.296;9.516;2023-09-08T01:28:06;12.57;;;10.02;;
47812;SDS011;34221;45.296;9.516;2023-09-08T01:28:22;16.15;;;10.88;;
47812;SDS011;34221;45.296;9.516;2023-09-08T01:28:39;16.30;;;11.18;;
47812;SDS011;34221;45.296;9.516;2023-09-08T01:28:55;14.13;;;11.18;;
47812;SDS011;34221;45.296;9.516;2023-09-08T01:29:10;13.98;;;11.35;;
47812;SDS011;34221;45.296;9.516;2023-09-08T01:29:26;13.30;;;10.63;;
47812;SDS011;34221;45.296;9.516;2023-09-08T01:29:44;13.65;;;10.45;;
47812;SDS011;34221;45.296;9.516;2023-09-08T01:30:00;15.15;;;10.85;;
47812;SDS011;34221;45.296;9.516;2023-09-08T01:30:20;19.83;;;12.38;;
47812;SDS011;34221;45.296;9.516;2023-09-08T01:30:39;16.33;;;11.32;;
47812;SDS011;34221;45.296;9.516;2023-09-08T01:30:54;13.20;;;10.23;;
47812;SDS011;34221;45.296;9.516;2023-09-08T01:31:13;13.07;;;10.40;;
47812;SDS011;34221;45.296;9.516;2023-09-08T01:31:28;14.80;;;10.60;;
47812;SDS011;34221;45.296;9.516;2023-09-08T01:31:43;14.88;;;10.73;;
47812;SDS011;34221;45.296;9.516;2023-09-08T01:31:58;13.88;;;10.60;;
47812;SDS011;34221;45.296;9.516;2023-09-08T01:32:15;14.15;;;10.93;;
47812;SDS011;34221;45.296;9.516;2023-09-08T01:32:30;14.25;;;10.90;;
47812;SDS011;34221;45.296;9.516;2023-09-08T01:32:47;13.07;;;10.80;;
47812;SDS011;34221;45.296;9.516;2023-09-08T01:33:02;13.70;;;11.38;;
47812;SDS011;34221;45.296;9.516;2023-09-08T01:33:18;14.68;;;11.43;;
47812;SDS011;34221;45.296;9.516;2023-09-08T01:33:33;13.85;;;10.70;;
47812;SDS011;34221;45.296;9.516;2023-09-08T01:33:48;13.70;;;10.35;;
47812;SDS011;34221;45.296;9.516;2023-09-08T01:34:04;13.50;;;10.40;;
47812;SDS011;34221;45.296;9.516;2023-09-08T01:34:21;12.02;;;10.27;;
47812;SDS011;34221;45.296;9.516;2023-09-08T01:34:36;12.25;;;10.55;;
47812;SDS011;34221;45.296;9.516;2023-09-08T01:34:54;12.88;;;10.73;;
47812;SDS011;34221;45.296;9.516;2023-09-08T01:35:10;13.70;;;10.90;;
47812;SDS011;34221;45.296;9.516;2023-09-08T01:35:25;15.70;;;11.50;;
47812;SDS011;34221;45.296;9.516;2023-09-08T01:35:40;14.27;;;10.85;;
47812;SDS011;34221;45.296;9.516;2023-09-08T01:35:56;12.88;;;10.27;;
47812;SDS011;34221;45.296;9.516;2023-09-08T01:36:11;14.00;;;10.73;;
47812;SDS011;34221;45.296;9.516;2023-09-08T01:36:27;14.25;;;10.63;;
47812;SDS011;34221;45.296;9.516;2023-09-08T01:36:42;13.38;;;10.55;;
47812;SDS011;34221;45.296;9.516;2023-09-08T01:36:57;15.35;;;11.43;;
47812;SDS011;34221;45.296;9.516;2023-09-08T01:37:15;17.05;;;11.70;;
47812;SDS011;34221;45.296;9.516;2023-09-08T01:37:30;15.02;;;11.10;;